aviador You're here:

FBMN Decoded Metar

MAUN in BOTSWANA
Report Time2017-08-22 10:00:00
UTC Time2017-08-22 11:10:04
Flight Rules Old
Wind080° at 03 kt
W.Decomp.*RWY 08: 3.0 kt HW 0.5 kt RCW
W.Rank080° ranks 4
Current wind is below 080° avg. (7.8)
Visibility9999 m
Phenomena:N/A
Clouds:N/A
Expected CloudBase > 8,400 ft AGL from Temp-Dew spread
CeilingNone
Temp28°C (ISA +19)
Dew Point07°C (26% RH)
Heat Index26.9°C
AAT26.2°C
QNH1020 hPa
Density Alt5,013 ft
Elevation2,953 ft
Report Wrong Elevation
Raw Report
METAR FBMN 221000Z 08003KT CAVOK 28/07 Q1020=

Extra information for FBMN:More info

Metar Taf Metar & Taf Last 4 Metars F.Rules Stats Wind Profile Meteogram Temp Stats Airport Information Weather charts Add Link Nearby VenuesMetar ALERT Operation Metar Decoded Social comments